createdAt,value
2023-12-30T00:00:18.634Z,99874.69
2023-12-30T00:02:47.675Z,99869.19
2023-12-30T00:05:15.422Z,99868.31
2023-12-30T00:07:43.074Z,99869.91
2023-12-30T00:10:12.346Z,99873.66
2023-12-30T00:12:40.101Z,99880.59
2023-12-30T00:15:09.336Z,99883.72
2023-12-30T00:17:37.251Z,99885.53
2023-12-30T00:20:05.812Z,99872.91
2023-12-30T00:22:33.869Z,99874.34
2023-12-30T00:25:01.705Z,99879.38
2023-12-30T00:27:30.794Z,99872.25
2023-12-30T00:29:58.374Z,99872.00
2023-12-30T00:32:26.052Z,99861.59
2023-12-30T00:34:54.070Z,99859.75
2023-12-30T00:37:21.932Z,99848.47
2023-12-30T00:39:52.184Z,99859.75
2023-12-30T00:42:20.729Z,99859.97
2023-12-30T00:44:49.694Z,99847.94
2023-12-30T00:47:18.481Z,99854.53
2023-12-30T00:49:46.454Z,99853.59
2023-12-30T00:52:14.132Z,99864.38
2023-12-30T00:54:48.205Z,99863.16
2023-12-30T00:57:18.843Z,99865.22
2023-12-30T00:59:46.672Z,99863.19
2023-12-30T01:02:15.664Z,99856.78
2023-12-30T01:04:43.349Z,99859.47
2023-12-30T01:07:11.007Z,99872.53
2023-12-30T01:09:38.882Z,99895.88
2023-12-30T01:12:07.628Z,99882.81
2023-12-30T01:14:35.563Z,99891.03
2023-12-30T01:17:03.159Z,99914.53
2023-12-30T01:19:32.404Z,99913.50
2023-12-30T01:22:00.194Z,99951.91
2023-12-30T01:24:29.041Z,99935.97
2023-12-30T01:26:56.707Z,99930.97
2023-12-30T01:29:24.337Z,99934.59
2023-12-30T01:31:52.052Z,99923.59
2023-12-30T01:34:19.841Z,99932.16
2023-12-30T01:36:48.949Z,99930.16
2023-12-30T01:39:16.604Z,99938.53
2023-12-30T01:41:44.277Z,99926.50
2023-12-30T01:44:12.000Z,99933.66
2023-12-30T01:46:39.662Z,99930.59
2023-12-30T01:49:08.394Z,99935.13
2023-12-30T01:51:36.651Z,99934.09
2023-12-30T01:54:06.527Z,99936.09
2023-12-30T01:56:34.698Z,99942.44
2023-12-30T01:59:04.012Z,99948.16
2023-12-30T02:01:31.799Z,99956.53
2023-12-30T02:03:59.520Z,99952.66
2023-12-30T02:06:27.277Z,99953.06
2023-12-30T02:08:55.183Z,99959.59
2023-12-30T02:11:24.380Z,99956.53
2023-12-30T02:13:52.051Z,99962.84
2023-12-30T02:16:19.775Z,99969.41
2023-12-30T02:18:47.566Z,99967.34
2023-12-30T02:21:15.346Z,99966.75
2023-12-30T02:23:44.313Z,99957.19
2023-12-30T02:26:11.922Z,99954.75
2023-12-30T02:28:39.548Z,99966.97
2023-12-30T02:31:07.152Z,99971.09
2023-12-30T02:33:34.908Z,99968.22
2023-12-30T02:36:02.550Z,99967.19
2023-12-30T02:38:30.303Z,99970.00
2023-12-30T02:40:59.245Z,99976.59
2023-12-30T02:43:27.176Z,99983.94
2023-12-30T02:45:56.497Z,99980.22
2023-12-30T02:48:24.409Z,99976.75
2023-12-30T02:50:52.148Z,99977.00
2023-12-30T02:53:20.237Z,99976.75
2023-12-30T02:55:47.875Z,99978.59
2023-12-30T02:58:16.863Z,99989.44
2023-12-30T03:00:44.590Z,99985.72
2023-12-30T03:03:12.387Z,99978.78
2023-12-30T03:05:40.028Z,99993.06
2023-12-30T03:08:07.843Z,99986.13
2023-12-30T03:10:35.598Z,100000.00
2023-12-30T03:13:03.408Z,99996.53
2023-12-30T03:15:32.867Z,100000.44
2023-12-30T03:18:00.732Z,100001.22
2023-12-30T03:20:28.372Z,100003.25
2023-12-30T03:22:55.968Z,100000.44
2023-12-30T03:25:23.561Z,100020.81
2023-12-30T03:27:51.215Z,100013.06
2023-12-30T03:30:18.822Z,100013.50
2023-12-30T03:32:48.851Z,100017.94
2023-12-30T03:35:20.071Z,100010.41
2023-12-30T03:37:47.797Z,100023.28
2023-12-30T03:40:15.571Z,100023.28
2023-12-30T03:42:43.200Z,100025.53
2023-12-30T03:45:11.498Z,100029.19
2023-12-30T03:47:39.567Z,100044.69
2023-12-30T03:50:09.476Z,100036.13
2023-12-30T03:52:37.386Z,100028.78
2023-12-30T03:55:06.012Z,100032.25
2023-12-30T03:57:33.663Z,100042.03
2023-12-30T04:00:01.442Z,100035.38
2023-12-30T04:02:29.211Z,100040.09
2023-12-30T04:04:57.209Z,100038.66
2023-12-30T04:07:26.199Z,100044.19
2023-12-30T04:09:54.000Z,100048.25
2023-12-30T04:12:21.804Z,100054.41
2023-12-30T04:14:49.691Z,100062.75
2023-12-30T04:17:17.410Z,100058.44
2023-12-30T04:19:45.191Z,100066.19
2023-12-30T04:22:14.770Z,100070.16
2023-12-30T04:24:44.388Z,100064.44
2023-12-30T04:27:12.007Z,100070.69
2023-12-30T04:29:39.614Z,100057.19
2023-12-30T04:32:08.004Z,100062.34
2023-12-30T04:34:36.780Z,100059.84
2023-12-30T04:37:05.075Z,100063.53
2023-12-30T04:39:32.690Z,100072.91
2023-12-30T04:42:01.845Z,100068.59
2023-12-30T04:44:29.509Z,100066.56
2023-12-30T04:46:57.503Z,100063.31
2023-12-30T04:49:25.389Z,100066.97
2023-12-30T04:51:53.476Z,100069.22
2023-12-30T04:54:21.151Z,100077.00
2023-12-30T04:56:48.819Z,100072.09
2023-12-30T04:59:18.561Z,100069.03
2023-12-30T05:01:46.172Z,100089.00
2023-12-30T05:04:14.361Z,100081.91
2023-12-30T05:06:41.997Z,100086.81
2023-12-30T05:09:09.998Z,100093.34
2023-12-30T05:11:37.684Z,100094.56
2023-12-30T05:14:05.437Z,100089.81
2023-12-30T05:16:34.595Z,100096.56
2023-12-30T05:19:02.235Z,100091.69
2023-12-30T05:21:29.912Z,100099.66
2023-12-30T05:23:57.527Z,100091.91
2023-12-30T05:26:25.129Z,100091.25
2023-12-30T05:28:52.677Z,100095.41
2023-12-30T05:31:20.453Z,100107.03
2023-12-30T05:33:49.613Z,100100.31
2023-12-30T05:36:17.324Z,100107.25
2023-12-30T05:38:44.896Z,100106.66
2023-12-30T05:41:12.488Z,100110.78
2023-12-30T05:43:42.631Z,100122.44
2023-12-30T05:46:16.884Z,100126.28
2023-12-30T05:48:44.896Z,100130.34
2023-12-30T05:51:14.034Z,100131.56
2023-12-30T05:53:42.405Z,100128.09
2023-12-30T05:56:10.036Z,100135.25
2023-12-30T05:58:38.933Z,100138.31
2023-12-30T06:01:06.713Z,100141.56
2023-12-30T06:03:36.514Z,100139.94
2023-12-30T06:06:05.489Z,100148.75
2023-12-30T06:08:34.671Z,100146.91
2023-12-30T06:11:02.271Z,100155.09
2023-12-30T06:13:30.500Z,100159.97
2023-12-30T06:15:58.160Z,100171.41
2023-12-30T06:18:27.882Z,100168.88
2023-12-30T06:20:55.506Z,100162.94
2023-12-30T06:23:23.091Z,100167.28
2023-12-30T06:25:52.035Z,100172.13
2023-12-30T06:28:19.704Z,100178.28
2023-12-30T06:30:47.785Z,100176.69
2023-12-30T06:33:15.496Z,100177.09
2023-12-30T06:35:43.136Z,100181.63
2023-12-30T06:38:10.827Z,100186.75
2023-12-30T06:40:38.463Z,100193.06
2023-12-30T06:43:07.524Z,100194.28
2023-12-30T06:45:35.437Z,100195.50
2023-12-30T06:48:04.351Z,100198.53
2023-12-30T06:50:33.085Z,100199.59
2023-12-30T06:53:01.237Z,100207.75
2023-12-30T06:55:35.139Z,100206.09
2023-12-30T06:58:09.358Z,100210.94
2023-12-30T07:00:37.609Z,100222.41
2023-12-30T07:03:06.015Z,100237.56
2023-12-30T07:05:37.751Z,100228.53
2023-12-30T07:08:06.121Z,100236.28
2023-12-30T07:10:33.792Z,100225.84
2023-12-30T07:13:01.701Z,100241.75
2023-12-30T07:15:30.705Z,100245.28
2023-12-30T07:17:58.762Z,100258.78
2023-12-30T07:20:27.203Z,100268.13
2023-12-30T07:22:54.855Z,100265.28
2023-12-30T07:25:22.504Z,100264.41
2023-12-30T07:27:50.318Z,100261.47
2023-12-30T07:30:17.934Z,100268.03
2023-12-30T07:32:46.961Z,100275.75
2023-12-30T07:35:14.542Z,100273.84
2023-12-30T07:37:42.517Z,100281.44
2023-12-30T07:40:11.311Z,100284.66
2023-12-30T07:42:38.958Z,100286.50
2023-12-30T07:45:08.127Z,100289.47
2023-12-30T07:47:35.876Z,100295.59
2023-12-30T07:50:06.247Z,100287.47
2023-12-30T07:52:34.043Z,100293.31
2023-12-30T07:55:01.838Z,100296.34
2023-12-30T07:57:29.576Z,100299.28
2023-12-30T07:59:57.384Z,100300.44
2023-12-30T08:02:24.968Z,100300.88
2023-12-30T08:04:55.499Z,100292.75
2023-12-30T08:07:25.562Z,100295.66
2023-12-30T08:09:53.217Z,100296.09
2023-12-30T08:12:20.943Z,100301.84
2023-12-30T08:14:48.487Z,100309.59
2023-12-30T08:17:16.123Z,100330.06
2023-12-30T08:19:43.810Z,100360.06
2023-12-30T08:22:12.316Z,100341.56
2023-12-30T08:24:41.270Z,100352.94
2023-12-30T08:27:08.886Z,100351.47
2023-12-30T08:29:36.538Z,100351.94
2023-12-30T08:32:06.662Z,100350.38
2023-12-30T08:34:34.572Z,100351.47
2023-12-30T08:37:09.173Z,100357.69
2023-12-30T08:39:38.334Z,100360.50
2023-12-30T08:42:08.021Z,100365.19
2023-12-30T08:44:39.009Z,100368.28
2023-12-30T08:47:06.942Z,100360.41
2023-12-30T08:49:34.801Z,100359.56
2023-12-30T08:52:02.439Z,100363.03
2023-12-30T08:54:30.167Z,100368.34
2023-12-30T08:56:57.829Z,100365.03
2023-12-30T08:59:27.077Z,100362.84
2023-12-30T09:01:55.002Z,100378.00
2023-12-30T09:04:22.875Z,100381.38
2023-12-30T09:06:50.574Z,100388.25
2023-12-30T09:09:18.158Z,100404.59
2023-12-30T09:11:46.203Z,100427.28
2023-12-30T09:14:14.654Z,100431.91
2023-12-30T09:16:43.676Z,100437.41
2023-12-30T09:19:11.607Z,100435.59
2023-12-30T09:21:39.278Z,100443.53
2023-12-30T09:24:07.903Z,100438.22
2023-12-30T09:26:35.514Z,100434.03
2023-12-30T09:29:03.111Z,100424.44
2023-12-30T09:31:30.757Z,100436.00
2023-12-30T09:33:59.763Z,100432.84
2023-12-30T09:36:29.278Z,100444.72
2023-12-30T09:38:56.866Z,100455.38
2023-12-30T09:41:27.425Z,100459.59
2023-12-30T09:43:55.892Z,100465.25
2023-12-30T09:46:23.603Z,100465.44
2023-12-30T09:48:53.475Z,100469.56
2023-12-30T09:51:22.765Z,100463.91
2023-12-30T09:53:50.345Z,100465.53
2023-12-30T09:56:20.312Z,100464.63
2023-12-30T09:58:48.664Z,100469.19
2023-12-30T10:01:17.386Z,100465.06
2023-12-30T10:03:45.184Z,100460.25
2023-12-30T10:06:15.437Z,100465.78
2023-12-30T10:08:44.835Z,100469.91
2023-12-30T10:11:13.155Z,100488.53
2023-12-30T10:13:41.705Z,100488.53
2023-12-30T10:16:09.848Z,100491.28
2023-12-30T10:18:38.285Z,100485.25
2023-12-30T10:21:06.741Z,100495.75
2023-12-30T10:23:35.729Z,100485.66
2023-12-30T10:26:05.586Z,100486.88
2023-12-30T10:28:33.302Z,100488.97
2023-12-30T10:31:04.491Z,100489.41
2023-12-30T10:33:34.029Z,100491.44
2023-12-30T10:36:01.990Z,100487.22
2023-12-30T10:38:30.012Z,100480.91
2023-12-30T10:40:57.787Z,100478.00
2023-12-30T10:43:26.820Z,100491.06
2023-12-30T10:45:58.864Z,100486.59
2023-12-30T10:48:31.873Z,100493.91
2023-12-30T10:51:00.524Z,100505.78
2023-12-30T10:53:30.485Z,100483.09
2023-12-30T10:56:01.889Z,100491.19
2023-12-30T10:58:35.000Z,100496.28
2023-12-30T11:01:05.831Z,100506.72
2023-12-30T11:03:35.617Z,100513.28
2023-12-30T11:06:09.561Z,100500.88
2023-12-30T11:08:37.565Z,100514.50
2023-12-30T11:11:07.054Z,100507.81
2023-12-30T11:13:42.713Z,100507.81
2023-12-30T11:16:15.464Z,100500.88
2023-12-30T11:18:47.767Z,100494.56
2023-12-30T11:21:34.549Z,100492.00
2023-12-30T11:24:02.965Z,100506.47
2023-12-30T11:26:30.806Z,100507.72
2023-12-30T11:29:01.682Z,100501.53
2023-12-30T11:31:33.257Z,100502.03
2023-12-30T11:34:01.972Z,100503.56
2023-12-30T11:36:30.846Z,100496.00
2023-12-30T11:39:00.097Z,100499.81
2023-12-30T11:41:28.760Z,100504.13
2023-12-30T11:43:57.271Z,100503.53
2023-12-30T11:46:27.486Z,100505.06
2023-12-30T11:48:55.384Z,100513.09
2023-12-30T11:51:23.305Z,100504.41
2023-12-30T11:53:51.192Z,100505.06
2023-12-30T11:56:20.578Z,100505.56
2023-12-30T11:58:48.609Z,100506.81
2023-12-30T12:01:16.322Z,100506.38
2023-12-30T12:03:45.360Z,100506.38
2023-12-30T12:06:13.520Z,100507.56
2023-12-30T12:08:41.438Z,100498.38
2023-12-30T12:11:10.256Z,100504.38
2023-12-30T12:13:38.204Z,100513.41
2023-12-30T12:16:07.407Z,100511.38
2023-12-30T12:18:35.924Z,100510.38
2023-12-30T12:21:13.737Z,100509.09
2023-12-30T12:23:42.410Z,100511.66
2023-12-30T12:26:10.642Z,100512.44
2023-12-30T12:28:38.364Z,100514.84
2023-12-30T12:31:08.575Z,100512.66
2023-12-30T12:33:37.248Z,100515.94
2023-12-30T12:36:06.965Z,100519.41
2023-12-30T12:38:34.745Z,100519.63
2023-12-30T12:41:02.359Z,100524.72
2023-12-30T12:43:31.157Z,100525.31
2023-12-30T12:45:59.080Z,100515.56
2023-12-30T12:48:26.963Z,100519.63
2023-12-30T12:50:56.681Z,100522.50
2023-12-30T12:53:25.754Z,100517.38
2023-12-30T12:55:53.737Z,100524.53
2023-12-30T12:58:21.412Z,100522.28
2023-12-30T13:00:49.604Z,100525.63
2023-12-30T13:03:17.441Z,100523.13
2023-12-30T13:05:45.244Z,100527.81
2023-12-30T13:08:13.024Z,100529.41
2023-12-30T13:10:48.291Z,100523.00
2023-12-30T13:13:16.103Z,100524.09
2023-12-30T13:15:45.068Z,100526.38
2023-12-30T13:18:18.109Z,100529.72
2023-12-30T13:20:47.279Z,100528.81
2023-12-30T13:23:15.824Z,100526.78
2023-12-30T13:25:45.262Z,100529.72
2023-12-30T13:28:13.231Z,100522.34
2023-12-30T13:30:41.635Z,100526.06
2023-12-30T13:33:11.774Z,100536.72
2023-12-30T13:35:40.523Z,100530.19
2023-12-30T13:38:13.711Z,100533.06
2023-12-30T13:40:42.935Z,100534.34
2023-12-30T13:43:12.637Z,100543.31
2023-12-30T13:45:45.025Z,100537.78
2023-12-30T13:48:46.733Z,100549.53
2023-12-30T13:51:17.194Z,100556.22
2023-12-30T13:53:45.258Z,100546.25
2023-12-30T13:56:20.000Z,100547.88
2023-12-30T13:58:50.869Z,100557.53
2023-12-30T14:03:52.109Z,100556.28
2023-12-30T14:06:22.328Z,100550.78
2023-12-30T14:08:50.249Z,100565.31
2023-12-30T14:11:32.399Z,100561.81
2023-12-30T14:14:04.520Z,100559.44
2023-12-30T14:16:33.001Z,100560.66
2023-12-30T14:19:00.834Z,100570.91
2023-12-30T14:21:28.685Z,100561.81
2023-12-30T14:23:56.278Z,100566.97
2023-12-30T14:26:24.043Z,100562.53
2023-12-30T14:28:51.650Z,100569.03
2023-12-30T14:31:20.677Z,100574.78
2023-12-30T14:33:49.184Z,100572.50
2023-12-30T14:36:17.234Z,100573.78
2023-12-30T14:38:46.796Z,100575.81
2023-12-30T14:41:14.450Z,100576.22
2023-12-30T14:43:42.806Z,100568.53
2023-12-30T14:46:12.792Z,100574.41
2023-12-30T14:48:42.031Z,100577.28
2023-12-30T14:51:09.734Z,100582.81
2023-12-30T14:53:37.297Z,100585.31
2023-12-30T14:56:05.529Z,100572.00
2023-12-30T14:58:33.195Z,100578.47
2023-12-30T15:01:01.581Z,100569.47
2023-12-30T15:03:29.681Z,100563.22
2023-12-30T15:05:58.662Z,100566.00
2023-12-30T15:08:26.350Z,100574.16
2023-12-30T15:10:54.494Z,100571.28
2023-12-30T15:13:22.148Z,100578.38
2023-12-30T15:15:49.792Z,100576.22
2023-12-30T15:18:17.437Z,100574.44
2023-12-30T15:20:45.137Z,100574.94
2023-12-30T15:23:15.826Z,100574.44
2023-12-30T15:25:43.564Z,100574.19
2023-12-30T15:28:11.252Z,100572.22
2023-12-30T15:30:39.024Z,100574.13
2023-12-30T15:33:07.351Z,100577.34
2023-12-30T15:35:35.670Z,100575.72
2023-12-30T15:38:03.380Z,100585.84
2023-12-30T15:40:34.041Z,100580.28
2023-12-30T15:43:01.978Z,100569.47
2023-12-30T15:45:30.069Z,100570.53
2023-12-30T15:47:57.837Z,100580.22
2023-12-30T15:50:25.600Z,100578.66
2023-12-30T15:52:53.890Z,100588.31
2023-12-30T15:55:21.418Z,100588.63
2023-12-30T15:57:51.357Z,100595.97
2023-12-30T16:00:19.520Z,100593.13
2023-12-30T16:02:47.521Z,100590.81
2023-12-30T16:05:15.253Z,100588.91
2023-12-30T16:07:43.033Z,100598.13
2023-12-30T16:10:11.180Z,100592.88
2023-12-30T16:12:39.258Z,100591.66
2023-12-30T16:15:09.513Z,100592.41
2023-12-30T16:17:37.278Z,100592.03
2023-12-30T16:20:05.885Z,100589.88
2023-12-30T16:22:33.586Z,100602.00
2023-12-30T16:25:01.317Z,100596.44
2023-12-30T16:27:28.994Z,100595.44
2023-12-30T16:29:56.595Z,100603.13
2023-12-30T16:32:25.547Z,100593.59
2023-12-30T16:34:54.180Z,100599.75
2023-12-30T16:37:23.543Z,100605.91
2023-12-30T16:39:52.717Z,100597.56
2023-12-30T16:42:20.666Z,100607.19
2023-12-30T16:44:48.245Z,100604.22
2023-12-30T16:47:15.935Z,100608.44
2023-12-30T16:49:44.960Z,100610.66
2023-12-30T16:52:12.608Z,100615.19
2023-12-30T16:54:40.159Z,100611.91
2023-12-30T16:57:08.178Z,100610.91
2023-12-30T16:59:35.843Z,100623.28
2023-12-30T17:02:03.668Z,100615.13
2023-12-30T17:04:31.291Z,100606.16
2023-12-30T17:07:00.334Z,100611.09
2023-12-30T17:09:27.941Z,100617.06
2023-12-30T17:11:55.547Z,100624.38
2023-12-30T17:14:23.140Z,100617.34
2023-12-30T17:16:50.764Z,100620.81
2023-12-30T17:19:18.543Z,100624.47
2023-12-30T17:21:46.279Z,100620.16
2023-12-30T17:24:15.772Z,100627.59
2023-12-30T17:26:43.377Z,100629.06
2023-12-30T17:29:10.979Z,100635.34
2023-12-30T17:31:38.586Z,100629.31
2023-12-30T17:34:06.281Z,100624.94
2023-12-30T17:36:33.919Z,100625.03
2023-12-30T17:39:01.535Z,100626.03
2023-12-30T17:41:30.574Z,100629.31
2023-12-30T17:43:58.811Z,100623.94
2023-12-30T17:46:27.292Z,100630.84
2023-12-30T17:48:55.099Z,100638.19
2023-12-30T17:51:23.381Z,100632.88
2023-12-30T17:53:51.819Z,100636.00
2023-12-30T17:56:20.314Z,100632.16
2023-12-30T17:58:50.692Z,100632.44
2023-12-30T18:01:20.405Z,100631.25
2023-12-30T18:03:48.068Z,100630.03
2023-12-30T18:06:16.214Z,100630.94
2023-12-30T18:08:44.034Z,100632.59
2023-12-30T18:11:11.636Z,100626.28
2023-12-30T18:13:39.477Z,100621.63
2023-12-30T18:16:09.642Z,100631.41
2023-12-30T18:18:37.528Z,100628.94
2023-12-30T18:21:05.412Z,100633.50
2023-12-30T18:23:33.006Z,100630.47
2023-12-30T18:26:00.679Z,100634.41
2023-12-30T18:28:28.360Z,100629.34
2023-12-30T18:30:56.309Z,100635.19
2023-12-30T18:33:27.038Z,100635.44
2023-12-30T18:35:55.460Z,100635.44
2023-12-30T18:38:23.125Z,100630.88
2023-12-30T18:40:50.997Z,100638.28
2023-12-30T18:43:18.674Z,100634.16
2023-12-30T18:45:46.339Z,100635.63
2023-12-30T18:48:15.651Z,100635.06
2023-12-30T18:50:45.294Z,100636.75
2023-12-30T18:53:13.107Z,100635.97
2023-12-30T18:55:41.435Z,100635.59
2023-12-30T18:58:09.216Z,100638.47
2023-12-30T19:00:36.883Z,100640.53
2023-12-30T19:03:05.211Z,100640.53
2023-12-30T19:05:33.242Z,100636.44
2023-12-30T19:08:02.655Z,100644.41
2023-12-30T19:10:30.297Z,100636.69
2023-12-30T19:12:58.076Z,100632.41
2023-12-30T19:15:25.934Z,100636.06
2023-12-30T19:17:53.735Z,100633.03
2023-12-30T19:20:22.258Z,100637.34
2023-12-30T19:22:50.006Z,100624.69
2023-12-30T19:25:19.112Z,100620.25
2023-12-30T19:27:47.813Z,100621.25
2023-12-30T19:30:15.902Z,100616.16
2023-12-30T19:32:43.508Z,100618.84
2023-12-30T19:35:11.828Z,100623.09
2023-12-30T19:37:43.184Z,100613.75
2023-12-30T19:40:12.504Z,100621.31
2023-12-30T19:42:41.531Z,100621.94
2023-12-30T19:45:12.960Z,100614.59
2023-12-30T19:47:41.199Z,100612.75
2023-12-30T19:50:08.923Z,100612.00
2023-12-30T19:52:36.680Z,100615.31
2023-12-30T19:55:04.849Z,100615.16
2023-12-30T19:57:33.538Z,100611.47
2023-12-30T20:00:04.150Z,100602.47
2023-12-30T20:02:32.506Z,100603.75
2023-12-30T20:05:02.601Z,100598.06
2023-12-30T20:07:31.660Z,100594.13
2023-12-30T20:09:59.295Z,100586.81
2023-12-30T20:12:27.012Z,100584.16
2023-12-30T20:14:54.739Z,100579.28
2023-12-30T20:17:23.749Z,100585.81
2023-12-30T20:19:51.425Z,100586.63
2023-12-30T20:22:19.307Z,100578.41
2023-12-30T20:24:46.882Z,100591.41
2023-12-30T20:27:14.497Z,100582.00
2023-12-30T20:29:43.112Z,100582.00
2023-12-30T20:32:10.829Z,100582.38
2023-12-30T20:34:39.746Z,100588.06
2023-12-30T20:37:07.446Z,100588.47
2023-12-30T20:39:34.988Z,100582.91
2023-12-30T20:42:02.575Z,100580.69
2023-12-30T20:44:30.191Z,100581.84
2023-12-30T20:46:57.839Z,100588.22
2023-12-30T20:49:26.206Z,100578.22
2023-12-30T20:51:55.259Z,100578.22
2023-12-30T20:54:22.927Z,100574.34
2023-12-30T20:56:50.500Z,100576.81
2023-12-30T20:59:21.255Z,100574.78
2023-12-30T21:01:49.266Z,100573.78
2023-12-30T21:04:17.413Z,100570.06
2023-12-30T21:06:45.152Z,100568.84
2023-12-30T21:09:15.334Z,100566.19
2023-12-30T21:11:43.596Z,100560.25
2023-12-30T21:14:11.221Z,100562.25
2023-12-30T21:16:39.074Z,100567.41
2023-12-30T21:19:06.825Z,100559.59
2023-12-30T21:21:34.513Z,100553.91
2023-12-30T21:24:02.472Z,100556.94
2023-12-30T21:26:32.877Z,100561.06
2023-12-30T21:29:00.590Z,100543.94
2023-12-30T21:31:28.249Z,100549.25
2023-12-30T21:33:55.943Z,100541.69
2023-12-30T21:36:23.842Z,100541.06
2023-12-30T21:38:51.483Z,100531.25
2023-12-30T21:41:23.693Z,100533.56
2023-12-30T21:43:52.881Z,100532.13
2023-12-30T21:46:20.561Z,100538.69
2023-12-30T21:48:48.319Z,100530.91
2023-12-30T21:51:18.437Z,100536.81
2023-12-30T21:53:46.463Z,100534.38
2023-12-30T21:56:14.759Z,100531.72
2023-12-30T21:58:42.474Z,100526.66
2023-12-30T22:01:11.452Z,100519.06
2023-12-30T22:03:39.184Z,100510.22
2023-12-30T22:06:07.632Z,100523.91
2023-12-30T22:08:35.377Z,100515.31
2023-12-30T22:11:03.042Z,100510.81
2023-12-30T22:13:30.732Z,100502.63
2023-12-30T22:15:58.641Z,100503.66
2023-12-30T22:18:27.736Z,100501.00
2023-12-30T22:20:56.453Z,100510.00
2023-12-30T22:23:24.134Z,100511.66
2023-12-30T22:25:51.805Z,100499.53
2023-12-30T22:28:19.526Z,100508.28
2023-12-30T22:30:47.180Z,100502.19
2023-12-30T22:33:15.286Z,100498.47
2023-12-30T22:35:44.239Z,100501.25
2023-12-30T22:38:11.909Z,100498.03
2023-12-30T22:40:39.523Z,100503.78
2023-12-30T22:43:07.387Z,100499.25
2023-12-30T22:45:37.599Z,100500.03
2023-12-30T22:48:06.034Z,100503.97
2023-12-30T22:50:33.632Z,100501.28
2023-12-30T22:53:02.957Z,100488.63
2023-12-30T22:55:30.999Z,100489.03
2023-12-30T22:57:58.706Z,100488.41
2023-12-30T23:00:28.489Z,100492.31
2023-12-30T23:02:56.194Z,100491.06
2023-12-30T23:05:24.330Z,100489.41
2023-12-30T23:07:52.468Z,100487.41
2023-12-30T23:10:21.476Z,100482.09
2023-12-30T23:12:49.153Z,100481.31
2023-12-30T23:15:16.845Z,100480.47
2023-12-30T23:17:44.649Z,100479.25
2023-12-30T23:20:13.413Z,100472.69
2023-12-30T23:22:41.182Z,100468.59
2023-12-30T23:25:09.407Z,100462.06
2023-12-30T23:27:38.932Z,100463.31
2023-12-30T23:30:07.777Z,100470.69
2023-12-30T23:32:37.534Z,100465.97
2023-12-30T23:35:05.541Z,100461.88
2023-12-30T23:37:33.793Z,100453.25
2023-12-30T23:40:02.126Z,100450.59
2023-12-30T23:42:29.740Z,100447.28
2023-12-30T23:44:58.739Z,100440.13
2023-12-30T23:47:26.489Z,100433.00
2023-12-30T23:49:54.091Z,100420.72
2023-12-30T23:52:21.819Z,100419.91
2023-12-30T23:54:49.414Z,100430.09
2023-12-30T23:57:17.744Z,100417.88
2023-12-30T23:59:45.420Z,100408.06
